Bristow, Nebraska
Current Conditions -  °F | °C
As of 4:35 AM on Sunday 21 Dec 2014 (Local Time) from KONL Reporting Station
Scattered Clouds Scattered Clouds  
Wind Chill: 26°   Ceiling: Unl
Heat Index: 26°   Visibility: 10mi
Dew Point: 25°   Wind: 3mph
Humidity: 99%   Direction: 190°S
Pressure: 29.8"   Gusts: NA
Location:  42.84°N, 98.58°W
Report Text: KONL 211035Z AUTO 19003KT 10SM SCT120 M04/M04 A2980 RMK AO2 T10361037
Loading
Personal Weather Stations






























Interactive Weather Map New forecast layout! Learn more

10-Day Weather Forecast

Advertisements
Track Severe Weather on mobile